METAR Data
IDs: Format: Raw Decoded Include TAF

Data at: 1937 UTC 26 Sep 2021

METAR for:KSMS (Sumter Muni, SC, US)
Text:KSMS 261935Z AUTO 00000KT 10SM CLR 27/13 A3007 RMK AO2
Temperature: 27.0°C ( 81°F)
Dewpoint: 13.0°C ( 55°F) [RH = 42%]
Pressure (altimeter):30.07 inches Hg (1018.4 mb)
Winds:calm
Visibility:10 or more sm (16+ km)
Ceiling:at least 12,000 feet AGL
Clouds:sky clear below 12,000 feet AGL
QC Flag:automated observation with no human augmentation

TAF for:KSMS (Sumter Muni, SC, US)
Text:No data found